createdAt,value
2022-11-25T00:01:55.048Z,19.79
2022-11-25T00:04:25.251Z,19.79
2022-11-25T00:06:55.287Z,19.72
2022-11-25T00:09:25.868Z,19.63
2022-11-25T00:11:56.707Z,19.62
2022-11-25T00:14:26.678Z,19.56
2022-11-25T00:16:56.711Z,19.49
2022-11-25T00:19:26.692Z,19.46
2022-11-25T00:21:57.041Z,19.35
2022-11-25T00:24:26.979Z,19.21
2022-11-25T00:26:57.207Z,19.25
2022-11-25T00:29:27.158Z,19.19
2022-11-25T00:31:57.115Z,19.12
2022-11-25T00:34:27.105Z,19.08
2022-11-25T00:36:57.788Z,19.01
2022-11-25T00:39:28.372Z,18.98
2022-11-25T00:42:16.492Z,19.01
2022-11-25T00:44:46.595Z,18.98
2022-11-25T00:47:19.339Z,18.98
2022-11-25T00:49:55.935Z,18.97
2022-11-25T00:52:28.551Z,19.00
2022-11-25T00:54:58.846Z,18.93
2022-11-25T00:57:28.770Z,18.93
2022-11-25T00:59:58.724Z,18.80
2022-11-25T01:02:29.024Z,18.73
2022-11-25T01:04:59.072Z,18.68
2022-11-25T01:07:29.459Z,18.66
2022-11-25T01:10:00.010Z,18.61
2022-11-25T01:12:31.770Z,18.64
2022-11-25T01:15:01.935Z,18.63
2022-11-25T01:17:32.046Z,18.57
2022-11-25T01:20:01.890Z,18.53
2022-11-25T01:22:31.869Z,18.52
2022-11-25T01:25:01.792Z,18.46
2022-11-25T01:27:31.956Z,18.45
2022-11-25T01:30:01.902Z,18.33
2022-11-25T01:32:32.244Z,18.30
2022-11-25T01:35:02.174Z,18.26
2022-11-25T01:37:33.854Z,18.16
2022-11-25T01:40:06.268Z,18.19
2022-11-25T01:42:36.701Z,18.16
2022-11-25T01:45:36.777Z,18.18
2022-11-25T01:48:29.864Z,18.15
2022-11-25T01:51:01.038Z,18.09
2022-11-25T01:53:31.810Z,17.99
2022-11-25T01:56:05.091Z,17.92
2022-11-25T01:58:38.744Z,17.88
2022-11-25T02:01:09.340Z,17.91
2022-11-25T02:03:44.619Z,17.89
2022-11-25T02:06:26.953Z,17.92
2022-11-25T02:09:09.316Z,17.84
2022-11-25T02:11:44.273Z,17.88
2022-11-25T02:14:16.495Z,17.85
2022-11-25T02:16:46.741Z,17.85
2022-11-25T02:19:33.840Z,17.78
2022-11-25T02:22:07.112Z,17.74
2022-11-25T02:24:53.130Z,17.66
2022-11-25T02:27:23.374Z,17.61
2022-11-25T02:29:54.594Z,17.57
2022-11-25T02:32:25.621Z,17.58
2022-11-25T02:34:56.219Z,17.63
2022-11-25T02:37:26.466Z,17.64
2022-11-25T02:39:57.105Z,17.57
2022-11-25T02:42:29.718Z,17.55
2022-11-25T02:45:00.994Z,17.53
2022-11-25T02:47:31.405Z,17.47
2022-11-25T02:50:01.413Z,17.44
2022-11-25T02:52:32.508Z,17.37
2022-11-25T02:55:02.906Z,17.33
2022-11-25T02:57:33.297Z,17.34
2022-11-25T03:00:03.825Z,17.31
2022-11-25T03:02:33.768Z,17.27
2022-11-25T03:05:04.814Z,17.24
2022-11-25T03:07:34.887Z,17.24
2022-11-25T03:10:05.414Z,17.20
2022-11-25T03:12:36.937Z,17.15
2022-11-25T03:15:08.627Z,17.12
2022-11-25T03:17:39.494Z,17.09
2022-11-25T03:20:11.114Z,17.12
2022-11-25T03:22:41.631Z,17.09
2022-11-25T03:25:13.620Z,17.05
2022-11-25T03:27:44.758Z,17.02
2022-11-25T03:30:19.193Z,16.95
2022-11-25T03:32:50.997Z,16.90
2022-11-25T03:35:21.925Z,16.88
2022-11-25T03:37:52.518Z,16.85
2022-11-25T03:40:22.930Z,16.86
2022-11-25T03:42:53.001Z,16.85
2022-11-25T03:45:23.035Z,16.83
2022-11-25T03:47:52.922Z,16.80
2022-11-25T03:50:23.345Z,16.76
2022-11-25T03:52:53.591Z,16.73
2022-11-25T03:55:23.572Z,16.69
2022-11-25T03:57:53.458Z,16.68
2022-11-25T04:00:23.798Z,16.64
2022-11-25T04:03:00.949Z,16.57
2022-11-25T04:05:34.473Z,16.54
2022-11-25T04:08:09.767Z,16.58
2022-11-25T04:10:41.301Z,16.54
2022-11-25T04:13:13.759Z,16.52
2022-11-25T04:15:52.398Z,16.47
2022-11-25T04:18:24.506Z,16.44
2022-11-25T04:20:58.234Z,16.38
2022-11-25T04:23:28.315Z,16.37
2022-11-25T04:26:03.205Z,16.31
2022-11-25T04:28:40.657Z,16.32
2022-11-25T04:31:11.281Z,16.30
2022-11-25T04:33:49.646Z,16.31
2022-11-25T04:36:23.505Z,16.32
2022-11-25T04:38:54.204Z,16.24
2022-11-25T04:41:25.386Z,16.22
2022-11-25T04:43:56.020Z,16.18
2022-11-25T04:46:28.888Z,16.14
2022-11-25T04:48:59.171Z,16.14
2022-11-25T04:51:29.476Z,16.09
2022-11-25T04:54:03.499Z,16.07
2022-11-25T04:56:35.333Z,16.01
2022-11-25T04:59:23.960Z,15.99
2022-11-25T05:01:55.815Z,16.01
2022-11-25T05:04:33.118Z,16.01
2022-11-25T05:07:03.535Z,15.97
2022-11-25T05:09:34.047Z,15.91
2022-11-25T05:12:14.760Z,15.86
2022-11-25T05:14:45.420Z,15.86
2022-11-25T05:17:21.340Z,15.87
2022-11-25T05:19:53.321Z,15.78
2022-11-25T05:22:27.842Z,15.73
2022-11-25T05:24:58.876Z,15.73
2022-11-25T05:27:30.331Z,15.69
2022-11-25T05:30:05.115Z,15.65
2022-11-25T05:32:35.680Z,15.60
2022-11-25T05:35:10.582Z,15.62
2022-11-25T05:37:42.700Z,15.59
2022-11-25T05:40:14.034Z,15.55
2022-11-25T05:43:03.066Z,15.52
2022-11-25T05:45:36.152Z,15.46
2022-11-25T05:48:07.705Z,15.48
2022-11-25T05:50:40.108Z,15.45
2022-11-25T05:53:22.634Z,15.45
2022-11-25T05:56:03.315Z,15.48
2022-11-25T05:59:01.453Z,15.45
2022-11-25T06:01:47.540Z,15.41
2022-11-25T06:04:18.199Z,15.36
2022-11-25T06:06:48.163Z,15.35
2022-11-25T06:09:18.099Z,15.39
2022-11-25T06:11:48.332Z,15.43
2022-11-25T06:14:21.497Z,15.41
2022-11-25T06:16:54.533Z,15.35
2022-11-25T06:19:35.068Z,15.28
2022-11-25T06:22:05.803Z,15.21
2022-11-25T06:24:35.919Z,15.22
2022-11-25T06:27:10.120Z,15.24
2022-11-25T06:29:41.549Z,15.20
2022-11-25T06:32:14.113Z,15.20
2022-11-25T06:34:55.013Z,15.12
2022-11-25T06:37:45.761Z,15.05
2022-11-25T06:40:16.269Z,14.97
2022-11-25T06:42:46.071Z,14.95
2022-11-25T06:45:16.026Z,14.92
2022-11-25T06:47:45.992Z,14.97
2022-11-25T06:50:16.167Z,14.94
2022-11-25T06:52:46.020Z,14.90
2022-11-25T06:55:16.277Z,14.97
2022-11-25T06:57:46.094Z,14.92
2022-11-25T07:00:17.339Z,14.87
2022-11-25T07:02:48.925Z,14.84
2022-11-25T07:05:19.702Z,14.77
2022-11-25T07:07:49.943Z,14.77
2022-11-25T07:10:19.862Z,14.79
2022-11-25T07:12:49.743Z,14.83
2022-11-25T07:15:19.582Z,14.84
2022-11-25T07:17:49.435Z,14.83
2022-11-25T07:20:19.307Z,14.76
2022-11-25T07:22:49.128Z,14.70
2022-11-25T07:25:19.005Z,14.67
2022-11-25T07:27:49.489Z,14.63
2022-11-25T07:31:09.794Z,14.64
2022-11-25T07:33:09.671Z,14.57
2022-11-25T07:35:39.530Z,14.56
2022-11-25T07:38:09.611Z,14.50
2022-11-25T07:40:39.462Z,14.56
2022-11-25T07:43:09.720Z,14.53
2022-11-25T07:45:41.148Z,14.50
2022-11-25T07:48:13.578Z,14.44
2022-11-25T07:50:43.622Z,14.47
2022-11-25T07:53:13.511Z,14.44
2022-11-25T07:55:43.399Z,14.44
2022-11-25T07:58:14.572Z,14.36
2022-11-25T08:00:45.029Z,14.33
2022-11-25T08:03:14.924Z,14.32
2022-11-25T08:05:44.970Z,14.30
2022-11-25T08:08:15.053Z,14.29
2022-11-25T08:10:44.907Z,14.29
2022-11-25T08:13:15.092Z,14.28
2022-11-25T08:15:44.964Z,14.28
2022-11-25T08:18:14.885Z,14.25
2022-11-25T08:20:45.000Z,14.25
2022-11-25T08:23:16.265Z,14.25
2022-11-25T08:25:50.431Z,14.25
2022-11-25T08:28:21.234Z,14.19
2022-11-25T08:30:51.243Z,14.15
2022-11-25T08:33:21.238Z,14.19
2022-11-25T08:35:57.221Z,14.19
2022-11-25T08:38:28.780Z,14.19
2022-11-25T08:41:00.036Z,14.21
2022-11-25T08:43:30.493Z,14.22
2022-11-25T08:46:00.440Z,14.29
2022-11-25T08:48:30.583Z,14.25
2022-11-25T08:51:00.522Z,14.26
2022-11-25T08:53:30.939Z,14.26
2022-11-25T08:56:01.030Z,14.63
2022-11-25T08:58:31.359Z,15.07
2022-11-25T09:01:02.442Z,15.36
2022-11-25T09:03:37.534Z,15.70
2022-11-25T09:06:09.423Z,15.99
2022-11-25T09:08:40.790Z,16.22
2022-11-25T09:11:12.561Z,16.51
2022-11-25T09:13:42.912Z,16.78
2022-11-25T09:16:13.599Z,17.02
2022-11-25T09:18:44.072Z,17.31
2022-11-25T09:21:17.589Z,17.55
2022-11-25T09:23:47.766Z,17.79
2022-11-25T09:26:26.726Z,18.02
2022-11-25T09:28:57.418Z,18.30
2022-11-25T09:31:27.833Z,18.47
2022-11-25T09:33:58.563Z,18.77
2022-11-25T09:36:28.739Z,19.04
2022-11-25T09:38:58.880Z,19.21
2022-11-25T09:42:20.917Z,19.66
2022-11-25T09:45:18.435Z,19.89
2022-11-25T09:48:26.884Z,20.21
2022-11-25T09:51:25.455Z,20.52
2022-11-25T09:54:03.137Z,20.67
2022-11-25T09:56:37.987Z,20.91
2022-11-25T09:59:40.799Z,21.25
2022-11-25T10:02:27.271Z,21.58
2022-11-25T10:05:24.384Z,21.98
2022-11-25T10:08:04.827Z,22.04
2022-11-25T10:10:46.304Z,22.35
2022-11-25T10:13:28.836Z,22.83
2022-11-25T10:16:03.603Z,23.15
2022-11-25T10:18:49.930Z,23.27
2022-11-25T10:21:20.236Z,23.50
2022-11-25T10:23:50.142Z,23.61
2022-11-25T10:26:24.812Z,23.89
2022-11-25T10:29:02.594Z,24.26
2022-11-25T10:31:38.365Z,24.54
2022-11-25T10:34:41.560Z,24.37
2022-11-25T10:37:27.019Z,24.98
2022-11-25T10:39:57.549Z,25.15
2022-11-25T10:42:29.824Z,25.09
2022-11-25T10:45:00.580Z,25.62
2022-11-25T10:48:14.256Z,26.08
2022-11-25T10:51:02.933Z,26.59
2022-11-25T10:53:33.878Z,26.55
2022-11-25T10:56:11.686Z,26.86
2022-11-25T10:58:43.634Z,27.20
2022-11-25T11:01:29.230Z,26.60
2022-11-25T11:04:17.085Z,25.94
2022-11-25T11:06:51.023Z,25.62
2022-11-25T11:09:42.125Z,26.28
2022-11-25T11:12:26.177Z,26.48
2022-11-25T11:15:31.012Z,26.83
2022-11-25T11:18:26.905Z,26.41
2022-11-25T11:21:02.189Z,26.62
2022-11-25T11:23:32.745Z,26.24
2022-11-25T11:26:06.177Z,26.80
2022-11-25T11:28:37.996Z,26.99
2022-11-25T11:31:16.663Z,27.03
2022-11-25T11:33:50.133Z,26.62
2022-11-25T11:36:41.562Z,26.87
2022-11-25T11:39:27.648Z,27.24
2022-11-25T11:42:15.382Z,27.29
2022-11-25T11:45:27.227Z,27.40
2022-11-25T11:48:06.268Z,27.33
2022-11-25T11:50:42.477Z,28.37
2022-11-25T11:53:28.567Z,27.86
2022-11-25T11:56:35.393Z,28.25
2022-11-25T11:59:20.298Z,29.05
2022-11-25T12:02:27.225Z,28.47
2022-11-25T12:05:13.186Z,28.67
2022-11-25T12:07:49.289Z,29.26
2022-11-25T12:10:28.596Z,29.12
2022-11-25T12:13:22.167Z,30.58
2022-11-25T12:16:03.262Z,30.52
2022-11-25T12:19:05.370Z,30.79
2022-11-25T12:21:42.198Z,31.25
2022-11-25T12:24:43.441Z,29.87
2022-11-25T12:27:19.376Z,29.65
2022-11-25T12:29:58.682Z,30.38
2022-11-25T12:32:43.107Z,31.16
2022-11-25T12:35:12.906Z,32.09
2022-11-25T12:37:52.392Z,30.95
2022-11-25T12:40:32.008Z,30.23
2022-11-25T12:43:39.880Z,29.59
2022-11-25T12:46:42.808Z,31.03
2022-11-25T12:49:29.177Z,32.04
2022-11-25T12:52:20.952Z,32.75
2022-11-25T12:54:59.628Z,32.17
2022-11-25T12:58:07.275Z,31.63
2022-11-25T13:00:58.487Z,31.03
2022-11-25T13:03:53.013Z,31.26
2022-11-25T13:06:45.844Z,30.65
2022-11-25T13:09:31.861Z,31.12
2022-11-25T13:12:08.411Z,31.08
2022-11-25T13:14:46.069Z,31.63
2022-11-25T13:17:17.976Z,31.59
2022-11-25T13:19:48.151Z,31.91
2022-11-25T13:22:24.673Z,31.40
2022-11-25T13:24:55.700Z,31.15
2022-11-25T13:27:48.804Z,30.82
2022-11-25T13:30:35.450Z,31.13
2022-11-25T13:33:25.973Z,31.19
2022-11-25T13:35:58.247Z,32.02
2022-11-25T13:39:00.114Z,33.45
2022-11-25T13:41:43.701Z,32.69
2022-11-25T13:44:41.644Z,31.88
2022-11-25T13:47:41.847Z,33.11
2022-11-25T13:50:22.044Z,34.10
2022-11-25T13:53:01.677Z,34.83
2022-11-25T13:55:36.626Z,34.15
2022-11-25T13:58:23.037Z,34.09
2022-11-25T14:00:53.211Z,33.10
2022-11-25T14:03:23.086Z,33.47
2022-11-25T14:06:28.600Z,35.03
2022-11-25T14:09:06.490Z,36.30
2022-11-25T14:11:51.347Z,35.72
2022-11-25T14:14:36.968Z,36.17
2022-11-25T14:17:25.218Z,35.53
2022-11-25T14:20:32.199Z,34.74
2022-11-25T14:23:37.120Z,33.95
2022-11-25T14:26:41.808Z,34.46
2022-11-25T14:29:31.438Z,33.47
2022-11-25T14:32:07.248Z,34.39
2022-11-25T14:35:13.031Z,35.39
2022-11-25T14:38:01.387Z,36.29
2022-11-25T14:40:39.993Z,35.55
2022-11-25T14:43:24.485Z,36.47
2022-11-25T14:46:11.947Z,36.06
2022-11-25T14:48:42.268Z,35.22
2022-11-25T14:51:15.348Z,34.70
2022-11-25T14:53:48.832Z,33.99
2022-11-25T14:56:35.632Z,35.12
2022-11-25T14:59:09.836Z,34.57
2022-11-25T15:01:41.706Z,34.02
2022-11-25T15:04:15.158Z,34.35
2022-11-25T15:06:55.101Z,36.27
2022-11-25T15:09:31.127Z,36.58
2022-11-25T15:12:13.189Z,34.77
2022-11-25T15:14:49.067Z,34.35
2022-11-25T15:17:38.529Z,34.04
2022-11-25T15:20:18.647Z,34.54
2022-11-25T15:22:53.987Z,34.68
2022-11-25T15:25:24.423Z,34.56
2022-11-25T15:27:55.351Z,34.43
2022-11-25T15:30:30.649Z,34.64
2022-11-25T15:33:01.240Z,35.51
2022-11-25T15:35:31.270Z,34.88
2022-11-25T15:38:01.629Z,35.97
2022-11-25T15:40:41.877Z,37.07
2022-11-25T15:43:32.825Z,34.91
2022-11-25T15:46:06.290Z,35.19
2022-11-25T15:48:42.648Z,35.90
2022-11-25T15:51:39.399Z,34.60
2022-11-25T15:54:18.936Z,35.30
2022-11-25T15:56:52.780Z,35.28
2022-11-25T15:59:42.347Z,35.01
2022-11-25T16:02:39.108Z,34.87
2022-11-25T16:05:19.122Z,35.85
2022-11-25T16:07:52.223Z,35.78
2022-11-25T16:10:33.647Z,36.02
2022-11-25T16:13:27.038Z,35.17
2022-11-25T16:16:12.872Z,34.87
2022-11-25T16:18:54.508Z,35.25
2022-11-25T16:21:31.853Z,34.66
2022-11-25T16:24:21.681Z,35.42
2022-11-25T16:26:56.712Z,36.41
2022-11-25T16:29:54.577Z,35.75
2022-11-25T16:32:32.111Z,36.11
2022-11-25T16:35:23.372Z,35.39
2022-11-25T16:37:59.099Z,36.98
2022-11-25T16:40:30.925Z,37.72
2022-11-25T16:43:02.520Z,37.84
2022-11-25T16:45:32.921Z,35.94
2022-11-25T16:48:03.254Z,35.83
2022-11-25T16:50:33.700Z,35.12
2022-11-25T16:53:04.703Z,34.95
2022-11-25T16:55:34.869Z,35.42
2022-11-25T16:58:13.550Z,35.66
2022-11-25T17:00:50.642Z,36.34
2022-11-25T17:03:21.243Z,35.14
2022-11-25T17:05:52.230Z,35.34
2022-11-25T17:08:22.423Z,35.90
2022-11-25T17:10:54.756Z,35.35
2022-11-25T17:13:25.412Z,35.00
2022-11-25T17:15:56.464Z,34.80
2022-11-25T17:18:26.956Z,35.37
2022-11-25T17:20:57.710Z,35.32
2022-11-25T17:23:28.913Z,34.87
2022-11-25T17:25:59.361Z,34.93
2022-11-25T17:28:30.221Z,35.28
2022-11-25T17:31:01.124Z,35.90
2022-11-25T17:33:31.641Z,36.31
2022-11-25T17:36:01.648Z,36.50
2022-11-25T17:38:31.531Z,35.42
2022-11-25T17:41:01.449Z,35.73
2022-11-25T17:43:34.568Z,35.34
2022-11-25T17:46:06.365Z,34.81
2022-11-25T17:48:37.439Z,34.39
2022-11-25T17:51:07.941Z,34.10
2022-11-25T17:53:41.734Z,34.40
2022-11-25T17:56:31.007Z,34.94
2022-11-25T17:59:08.092Z,34.05
2022-11-25T18:01:38.565Z,33.58
2022-11-25T18:04:24.887Z,33.69
2022-11-25T18:06:55.830Z,34.05
2022-11-25T18:09:26.167Z,33.91
2022-11-25T18:11:59.729Z,34.33
2022-11-25T18:14:37.033Z,33.81
2022-11-25T18:17:09.280Z,33.64
2022-11-25T18:19:39.969Z,33.68
2022-11-25T18:22:20.877Z,33.89
2022-11-25T18:24:51.342Z,34.20
2022-11-25T18:27:33.165Z,33.26
2022-11-25T18:30:07.534Z,33.59
2022-11-25T18:32:37.963Z,34.10
2022-11-25T18:35:18.140Z,33.33
2022-11-25T18:37:49.125Z,32.77
2022-11-25T18:40:20.013Z,32.84
2022-11-25T18:42:54.519Z,33.20
2022-11-25T18:45:30.211Z,33.14
2022-11-25T18:48:00.876Z,32.90
2022-11-25T18:50:33.342Z,32.96
2022-11-25T18:53:03.755Z,32.72
2022-11-25T18:55:33.686Z,32.69
2022-11-25T18:58:04.106Z,32.56
2022-11-25T19:00:34.254Z,32.43
2022-11-25T19:03:05.635Z,32.33
2022-11-25T19:05:36.140Z,32.12
2022-11-25T19:08:07.702Z,32.09
2022-11-25T19:10:39.186Z,32.12
2022-11-25T19:13:19.783Z,32.31
2022-11-25T19:15:50.411Z,32.19
2022-11-25T19:18:28.653Z,32.24
2022-11-25T19:20:58.958Z,32.12
2022-11-25T19:23:29.998Z,32.15
2022-11-25T19:26:12.559Z,32.04
2022-11-25T19:28:45.544Z,32.04
2022-11-25T19:31:15.713Z,31.82
2022-11-25T19:33:48.991Z,31.66
2022-11-25T19:36:26.350Z,31.67
2022-11-25T19:38:57.090Z,31.76
2022-11-25T19:41:27.378Z,31.60
2022-11-25T19:43:57.410Z,31.61
2022-11-25T19:46:46.328Z,31.56
2022-11-25T19:49:22.590Z,31.47
2022-11-25T19:51:52.812Z,31.37
2022-11-25T19:54:22.798Z,31.51
2022-11-25T19:56:52.729Z,31.53
2022-11-25T19:59:23.123Z,31.37
2022-11-25T20:01:53.223Z,31.20
2022-11-25T20:04:24.372Z,31.04
2022-11-25T20:06:54.790Z,30.85
2022-11-25T20:09:24.818Z,30.91
2022-11-25T20:11:59.769Z,30.86
2022-11-25T20:14:35.903Z,30.89
2022-11-25T20:17:13.173Z,30.86
2022-11-25T20:19:44.087Z,30.76
2022-11-25T20:22:21.421Z,30.67
2022-11-25T20:24:52.785Z,30.69
2022-11-25T20:27:27.625Z,30.71
2022-11-25T20:29:58.339Z,30.65
2022-11-25T20:32:31.485Z,30.57
2022-11-25T20:35:02.274Z,30.48
2022-11-25T20:37:41.623Z,30.31
2022-11-25T20:40:18.736Z,30.24
2022-11-25T20:42:51.194Z,30.02
2022-11-25T20:45:24.454Z,29.99
2022-11-25T20:47:55.301Z,29.86
2022-11-25T20:50:25.757Z,29.65
2022-11-25T20:52:55.869Z,29.32
2022-11-25T20:55:27.543Z,28.97
2022-11-25T20:57:58.006Z,28.80
2022-11-25T21:00:30.346Z,28.60
2022-11-25T21:03:00.527Z,28.36
2022-11-25T21:05:30.901Z,28.26
2022-11-25T21:08:02.176Z,28.19
2022-11-25T21:10:36.002Z,28.10
2022-11-25T21:13:14.882Z,28.09
2022-11-25T21:15:45.945Z,27.96
2022-11-25T21:18:16.130Z,27.67
2022-11-25T21:20:46.681Z,27.47
2022-11-25T21:23:25.263Z,27.27
2022-11-25T21:25:58.069Z,27.16
2022-11-25T21:28:29.382Z,27.02
2022-11-25T21:30:59.818Z,26.89
2022-11-25T21:33:30.177Z,26.76
2022-11-25T21:36:01.874Z,26.63
2022-11-25T21:38:32.084Z,26.53
2022-11-25T21:41:02.046Z,26.41
2022-11-25T21:43:35.406Z,26.18
2022-11-25T21:46:09.277Z,25.98
2022-11-25T21:48:42.078Z,25.79
2022-11-25T21:51:14.589Z,25.54
2022-11-25T21:53:44.753Z,25.25
2022-11-25T21:56:29.867Z,25.08
2022-11-25T21:59:02.169Z,24.95
2022-11-25T22:01:33.057Z,24.74
2022-11-25T22:04:03.291Z,24.51
2022-11-25T22:06:33.326Z,24.31
2022-11-25T22:09:03.761Z,24.31
2022-11-25T22:11:37.044Z,24.26
2022-11-25T22:14:17.505Z,24.14
2022-11-25T22:16:47.729Z,24.08
2022-11-25T22:19:22.521Z,24.05
2022-11-25T22:21:53.127Z,23.81
2022-11-25T22:24:24.150Z,23.58
2022-11-25T22:26:58.005Z,23.35
2022-11-25T22:29:36.663Z,23.22
2022-11-25T22:32:12.426Z,23.08
2022-11-25T22:34:43.244Z,22.86
2022-11-25T22:37:20.848Z,22.72
2022-11-25T22:39:52.360Z,22.60
2022-11-25T22:42:32.284Z,22.53
2022-11-25T22:45:05.976Z,22.38
2022-11-25T22:47:43.648Z,22.28
2022-11-25T22:50:23.860Z,22.14
2022-11-25T22:52:56.054Z,22.02
2022-11-25T22:55:31.998Z,21.93
2022-11-25T22:58:05.293Z,21.71
2022-11-25T23:00:39.398Z,21.61
2022-11-25T23:03:19.218Z,21.50
2022-11-25T23:05:51.893Z,21.40
2022-11-25T23:08:24.775Z,21.30
2022-11-25T23:10:56.301Z,21.23
2022-11-25T23:13:27.260Z,21.18
2022-11-25T23:16:02.849Z,21.23
2022-11-25T23:18:45.335Z,21.07
2022-11-25T23:21:25.573Z,21.05
2022-11-25T23:23:56.582Z,20.89
2022-11-25T23:26:30.995Z,20.72
2022-11-25T23:29:05.185Z,20.57
2022-11-25T23:31:40.430Z,20.49
2022-11-25T23:34:14.794Z,20.40
2022-11-25T23:36:48.049Z,20.35
2022-11-25T23:39:23.758Z,20.27
2022-11-25T23:41:55.435Z,20.23
2022-11-25T23:44:28.363Z,20.21
2022-11-25T23:47:04.419Z,20.20
2022-11-25T23:49:40.545Z,20.16
2022-11-25T23:52:20.318Z,20.07
2022-11-25T23:54:52.813Z,20.21
2022-11-25T23:57:31.615Z,20.47
